createdAt,value
2019-04-21T00:02:29.871Z,46.00
2019-04-21T00:05:06.086Z,46.30
2019-04-21T00:07:37.329Z,46.10
2019-04-21T00:10:12.113Z,45.80
2019-04-21T00:12:37.593Z,45.50
2019-04-21T00:15:02.210Z,45.60
2019-04-21T00:17:21.768Z,45.50
2019-04-21T00:19:55.447Z,45.60
2019-04-21T00:22:34.474Z,45.80
2019-04-21T00:25:09.412Z,45.90
2019-04-21T00:27:34.082Z,46.00
2019-04-21T00:30:14.222Z,46.00
2019-04-21T00:32:31.375Z,46.00
2019-04-21T00:34:56.275Z,46.30
2019-04-21T00:37:29.662Z,46.80
2019-04-21T00:40:13.208Z,46.20
2019-04-21T00:42:37.422Z,46.10
2019-04-21T00:45:01.906Z,46.10
2019-04-21T00:47:51.122Z,46.00
2019-04-21T00:50:05.202Z,46.40
2019-04-21T00:58:10.549Z,46.40
2019-04-21T01:00:44.526Z,46.40
2019-04-21T01:03:12.894Z,46.40
2019-04-21T01:05:42.944Z,46.20
2019-04-21T01:08:09.971Z,46.00
2019-04-21T01:10:31.132Z,46.00
2019-04-21T01:13:09.849Z,46.00
2019-04-21T01:15:43.567Z,46.20
2019-04-21T01:18:04.822Z,46.20
2019-04-21T01:20:17.667Z,46.70
2019-04-21T01:22:46.528Z,46.90
2019-04-21T01:25:22.672Z,47.10
2019-04-21T01:27:59.347Z,47.00
2019-04-21T01:30:39.001Z,46.80
2019-04-21T01:33:00.760Z,47.10
2019-04-21T01:35:36.633Z,47.00
2019-04-21T01:38:03.040Z,47.20
2019-04-21T01:40:40.913Z,47.40
2019-04-21T01:43:00.308Z,47.10
2019-04-21T01:45:27.952Z,47.10
2019-04-21T01:47:55.965Z,47.20
2019-04-21T01:50:29.954Z,47.40
2019-04-21T01:53:02.102Z,47.60
2019-04-21T01:55:48.183Z,47.60
2019-04-21T01:58:11.555Z,47.50
2019-04-21T02:00:55.491Z,47.50
2019-04-21T02:03:52.703Z,47.80
2019-04-21T02:05:59.688Z,47.70
2019-04-21T02:08:22.832Z,47.80
2019-04-21T02:11:02.190Z,48.10
2019-04-21T02:13:23.136Z,48.20
2019-04-21T02:16:02.480Z,48.00
2019-04-21T02:18:23.163Z,48.30
2019-04-21T02:20:45.904Z,48.20
2019-04-21T02:25:55.531Z,48.20
2019-04-21T02:28:30.849Z,48.40
2019-04-21T02:31:05.912Z,48.60
2019-04-21T02:33:40.964Z,48.70
2019-04-21T02:36:20.674Z,48.90
2019-04-21T02:43:25.557Z,49.00
2019-04-21T02:48:27.960Z,48.70
2019-04-21T02:50:53.485Z,48.90
2019-04-21T02:53:37.440Z,48.80
2019-04-21T02:55:51.259Z,48.90
2019-04-21T02:58:35.171Z,49.00
2019-04-21T03:01:14.429Z,49.10
2019-04-21T03:06:54.222Z,49.30
2019-04-21T03:09:20.537Z,49.30
2019-04-21T03:11:52.319Z,49.50
2019-04-21T03:14:16.065Z,49.30
2019-04-21T03:16:40.589Z,49.40
2019-04-21T03:19:20.517Z,49.40
2019-04-21T03:21:52.985Z,49.60
2019-04-21T03:26:55.837Z,49.50
2019-04-21T03:29:11.830Z,49.50
2019-04-21T03:32:04.049Z,49.40
2019-04-21T03:39:04.677Z,49.50
2019-04-21T03:41:40.355Z,49.70
2019-04-21T03:44:09.977Z,49.90
2019-04-21T03:46:41.281Z,50.50
2019-04-21T03:49:10.618Z,49.90
2019-04-21T03:51:37.138Z,50.00
2019-04-21T03:54:11.190Z,50.00
2019-04-21T04:01:57.690Z,49.80
2019-04-21T04:04:34.185Z,50.10
2019-04-21T04:07:39.568Z,50.00
2019-04-21T04:10:08.069Z,49.90
2019-04-21T04:12:19.649Z,49.60
2019-04-21T04:17:16.848Z,49.60
2019-04-21T04:19:56.492Z,49.30
2019-04-21T04:24:57.902Z,49.60
2019-04-21T04:27:35.249Z,49.60
2019-04-21T04:29:53.067Z,49.90
2019-04-21T04:34:59.506Z,49.80
2019-04-21T04:37:23.629Z,49.90
2019-04-21T04:40:10.907Z,50.10
2019-04-21T04:42:46.325Z,50.10
2019-04-21T04:45:15.401Z,50.40
2019-04-21T04:47:44.634Z,50.50
2019-04-21T04:50:08.182Z,50.60
2019-04-21T04:55:12.107Z,50.60
2019-04-21T04:57:51.285Z,50.80
2019-04-21T05:00:19.881Z,50.90
2019-04-21T05:07:43.024Z,50.80
2019-04-21T05:10:04.282Z,51.20
2019-04-21T05:12:29.604Z,51.80
2019-04-21T05:15:09.134Z,51.20
2019-04-21T05:20:08.881Z,51.60
2019-04-21T05:22:29.011Z,51.60
2019-04-21T05:24:49.288Z,51.60
2019-04-21T05:27:33.573Z,51.60
2019-04-21T05:30:17.251Z,52.00
2019-04-21T05:33:25.706Z,51.90
2019-04-21T05:35:57.274Z,51.30
2019-04-21T05:38:31.426Z,51.20
2019-04-21T05:40:59.091Z,51.00
2019-04-21T05:43:51.661Z,50.80
2019-04-21T05:46:05.831Z,50.70
2019-04-21T05:48:46.918Z,50.90
2019-04-21T05:51:08.902Z,50.90
2019-04-21T05:53:48.248Z,50.90
2019-04-21T05:56:15.965Z,50.90
2019-04-21T05:58:43.725Z,51.00
2019-04-21T06:01:30.121Z,51.20
2019-04-21T06:08:46.902Z,51.10
2019-04-21T06:11:16.150Z,50.90
2019-04-21T06:13:48.813Z,50.70
2019-04-21T06:16:07.495Z,50.70
2019-04-21T06:18:48.718Z,50.90
2019-04-21T06:21:10.820Z,51.00
2019-04-21T06:23:42.347Z,50.60
2019-04-21T06:28:41.326Z,50.60
2019-04-21T06:31:12.452Z,50.90
2019-04-21T06:33:43.401Z,50.70
2019-04-21T06:41:33.930Z,50.60
2019-04-21T06:46:36.644Z,49.70
2019-04-21T06:51:30.595Z,49.70
2019-04-21T06:54:03.441Z,50.00
2019-04-21T06:56:39.712Z,50.00
2019-04-21T06:59:03.643Z,49.70
2019-04-21T07:01:34.302Z,48.80
2019-04-21T07:04:08.066Z,49.00
2019-04-21T07:06:29.458Z,48.40
2019-04-21T07:09:11.017Z,48.60
2019-04-21T07:11:28.756Z,48.20
2019-04-21T07:14:05.756Z,48.20
2019-04-21T07:16:37.153Z,48.40
2019-04-21T07:19:05.917Z,48.40
2019-04-21T07:21:31.118Z,48.50
2019-04-21T07:24:00.555Z,48.50
2019-04-21T07:26:25.467Z,48.50
2019-04-21T07:29:01.674Z,48.40
2019-04-21T07:31:35.852Z,48.30
2019-04-21T07:33:57.585Z,48.40
2019-04-21T07:36:35.427Z,48.40
2019-04-21T07:38:55.628Z,48.40
2019-04-21T07:41:20.070Z,48.50
2019-04-21T07:43:55.281Z,48.20
2019-04-21T07:46:27.360Z,48.30
2019-04-21T07:49:34.087Z,48.30
2019-04-21T07:52:22.355Z,48.00
2019-04-21T07:54:57.457Z,48.00
2019-04-21T07:57:15.441Z,47.90
2019-04-21T07:59:56.453Z,48.00
2019-04-21T08:02:17.073Z,48.00
2019-04-21T08:05:07.418Z,47.60
2019-04-21T08:07:21.976Z,47.70
2019-04-21T08:09:42.583Z,47.60
2019-04-21T08:12:08.184Z,48.00
2019-04-21T08:14:42.878Z,48.00
2019-04-21T08:17:14.340Z,47.90
2019-04-21T08:19:47.708Z,47.90
2019-04-21T08:22:15.805Z,48.40
2019-04-21T08:24:47.400Z,48.40
2019-04-21T08:27:11.991Z,48.40
2019-04-21T08:34:49.639Z,48.20
2019-04-21T08:37:12.636Z,48.10
2019-04-21T08:39:49.753Z,48.10
2019-04-21T08:42:03.311Z,48.10
2019-04-21T08:44:43.086Z,48.00
2019-04-21T08:47:09.633Z,47.80
2019-04-21T08:49:36.469Z,47.70
2019-04-21T08:52:16.767Z,47.50
2019-04-21T08:54:32.729Z,47.50
2019-04-21T08:57:27.019Z,47.60
2019-04-21T09:00:01.415Z,47.60
2019-04-21T09:02:43.188Z,47.90
2019-04-21T09:05:09.445Z,47.80
2019-04-21T09:10:02.822Z,47.90
2019-04-21T09:12:31.002Z,47.80
2019-04-21T09:15:03.328Z,47.50
2019-04-21T09:17:25.183Z,47.30
2019-04-21T09:20:10.707Z,46.90
2019-04-21T09:22:29.876Z,46.80
2019-04-21T09:24:55.950Z,46.60
2019-04-21T09:27:27.003Z,46.40
2019-04-21T09:29:44.729Z,46.60
2019-04-21T09:32:13.220Z,46.50
2019-04-21T09:34:41.772Z,46.10
2019-04-21T09:37:19.003Z,46.00
2019-04-21T09:39:40.949Z,45.80
2019-04-21T09:42:06.607Z,45.70
2019-04-21T09:44:38.598Z,45.80
2019-04-21T09:47:06.972Z,46.00
2019-04-21T09:49:37.188Z,45.80
2019-04-21T09:52:06.674Z,46.00
2019-04-21T09:54:45.260Z,46.00
2019-04-21T09:57:08.937Z,45.70
2019-04-21T09:59:37.157Z,45.50
2019-04-21T10:02:08.443Z,45.50
2019-04-21T10:04:31.168Z,45.50
2019-04-21T10:06:58.748Z,45.30
2019-04-21T10:09:26.616Z,45.10
2019-04-21T10:11:54.834Z,45.20
2019-04-21T10:14:24.182Z,45.50
2019-04-21T10:17:11.243Z,45.30
2019-04-21T10:19:39.731Z,45.20
2019-04-21T10:22:08.440Z,45.70
2019-04-21T10:24:38.250Z,45.90
2019-04-21T10:27:07.300Z,46.40
2019-04-21T10:29:41.280Z,46.40
2019-04-21T10:32:05.839Z,46.50
2019-04-21T10:34:32.867Z,46.40
2019-04-21T10:37:00.873Z,46.50
2019-04-21T10:39:29.565Z,46.60
2019-04-21T10:41:57.357Z,46.80
2019-04-21T10:44:25.241Z,46.90
2019-04-21T10:46:54.102Z,46.80
2019-04-21T10:49:22.550Z,46.60
2019-04-21T10:51:50.788Z,46.40
2019-04-21T10:54:19.990Z,46.30
2019-04-21T10:56:49.040Z,46.20
2019-04-21T10:59:16.787Z,46.20
2019-04-21T11:01:45.175Z,46.00
2019-04-21T11:04:27.815Z,45.80
2019-04-21T11:06:52.637Z,46.00
2019-04-21T11:09:22.035Z,45.90
2019-04-21T11:11:51.663Z,46.00
2019-04-21T11:14:19.160Z,46.30
2019-04-21T11:16:48.052Z,46.10
2019-04-21T11:19:16.332Z,45.90
2019-04-21T11:21:43.371Z,46.00
2019-04-21T11:24:12.298Z,46.00
2019-04-21T11:26:40.543Z,45.30
2019-04-21T11:29:08.007Z,44.60
2019-04-21T11:31:35.116Z,44.50
2019-04-21T11:34:03.023Z,44.20
2019-04-21T11:36:31.356Z,43.70
2019-04-21T11:39:30.674Z,43.30
2019-04-21T11:41:49.781Z,43.20
2019-04-21T11:44:18.399Z,43.60
2019-04-21T11:46:48.850Z,43.10
2019-04-21T11:49:17.953Z,42.00
2019-04-21T11:51:45.095Z,41.20
2019-04-21T11:54:13.023Z,40.70
2019-04-21T11:56:40.994Z,40.50
2019-04-21T11:59:31.668Z,40.20
2019-04-21T12:01:59.623Z,39.40
2019-04-21T12:04:27.523Z,40.20
2019-04-21T12:06:55.969Z,40.50
2019-04-21T12:09:25.118Z,40.40
2019-04-21T12:11:53.744Z,40.40
2019-04-21T12:14:21.792Z,40.60
2019-04-21T12:16:48.817Z,40.90
2019-04-21T12:19:16.692Z,41.20
2019-04-21T12:21:57.305Z,41.60
2019-04-21T12:24:15.414Z,41.80
2019-04-21T12:26:44.158Z,42.20
2019-04-21T12:29:12.203Z,42.10
2019-04-21T12:32:03.495Z,42.10
2019-04-21T12:34:32.175Z,42.40
2019-04-21T12:36:59.383Z,42.40
2019-04-21T12:39:27.078Z,42.70
2019-04-21T12:41:54.827Z,43.20
2019-04-21T12:44:22.571Z,43.50
2019-04-21T12:46:51.863Z,43.60
2019-04-21T12:49:20.066Z,44.00
2019-04-21T12:51:49.283Z,44.10
2019-04-21T12:54:17.546Z,44.80
2019-04-21T12:56:45.672Z,43.80
2019-04-21T12:59:13.172Z,43.50
2019-04-21T13:01:41.151Z,43.90
2019-04-21T13:04:08.476Z,44.10
2019-04-21T13:06:37.353Z,44.30
2019-04-21T13:09:09.358Z,44.50
2019-04-21T13:11:35.456Z,44.70
2019-04-21T13:14:04.073Z,44.80
2019-04-21T13:16:31.662Z,44.80
2019-04-21T13:19:01.393Z,44.60
2019-04-21T13:21:30.392Z,44.40
2019-04-21T13:23:58.854Z,44.60
2019-04-21T13:26:32.806Z,44.80
2019-04-21T13:28:56.437Z,45.00
2019-04-21T13:31:24.791Z,45.00
2019-04-21T13:33:52.334Z,45.10
2019-04-21T13:36:21.273Z,45.20
2019-04-21T13:42:02.871Z,45.00
2019-04-21T13:44:20.988Z,45.10
2019-04-21T13:46:49.272Z,44.90
2019-04-21T13:49:17.434Z,45.10
2019-04-21T13:51:45.906Z,45.50
2019-04-21T13:54:15.618Z,45.80
2019-04-21T13:56:44.744Z,45.90
2019-04-21T13:59:12.300Z,45.70
2019-04-21T14:01:41.308Z,45.30
2019-04-21T14:04:09.496Z,45.40
2019-04-21T14:06:38.285Z,45.40
2019-04-21T14:09:09.542Z,45.30
2019-04-21T14:11:37.958Z,44.90
2019-04-21T14:14:06.556Z,44.60
2019-04-21T14:16:36.103Z,44.10
2019-04-21T14:19:05.530Z,44.20
2019-04-21T14:21:33.779Z,44.10
2019-04-21T14:24:01.287Z,44.20
2019-04-21T14:26:29.947Z,44.10
2019-04-21T14:28:57.306Z,44.50
2019-04-21T14:31:26.249Z,44.50
2019-04-21T14:33:54.192Z,44.60
2019-04-21T14:36:21.275Z,44.80
2019-04-21T14:38:50.318Z,45.10
2019-04-21T14:41:17.877Z,45.10
2019-04-21T14:43:45.935Z,45.30
2019-04-21T14:46:37.129Z,45.30
2019-04-21T14:49:17.371Z,45.20
2019-04-21T14:51:56.828Z,45.00
2019-04-21T14:54:44.665Z,44.90
2019-04-21T14:57:13.477Z,45.10
2019-04-21T14:59:40.800Z,45.10
2019-04-21T15:02:09.857Z,45.90
2019-04-21T15:04:37.695Z,45.70
2019-04-21T15:07:05.606Z,44.80
2019-04-21T15:09:35.881Z,44.20
2019-04-21T15:12:02.413Z,44.10
2019-04-21T15:14:29.842Z,44.60
2019-04-21T15:16:56.914Z,45.30
2019-04-21T15:19:26.596Z,44.50
2019-04-21T15:21:56.576Z,44.30
2019-04-21T15:24:24.615Z,44.30
2019-04-21T15:26:53.045Z,44.40
2019-04-21T15:29:20.466Z,44.50
2019-04-21T15:31:48.366Z,43.90
2019-04-21T15:34:17.074Z,43.80
2019-04-21T15:36:46.212Z,43.80
2019-04-21T15:39:13.954Z,43.70
2019-04-21T15:41:43.065Z,43.40
2019-04-21T15:44:10.016Z,43.90
2019-04-21T15:46:37.659Z,43.70
2019-04-21T15:49:05.072Z,43.80
2019-04-21T15:51:33.753Z,43.50
2019-04-21T15:54:02.644Z,43.80
2019-04-21T15:56:42.634Z,43.60
2019-04-21T15:59:28.953Z,43.40
2019-04-21T16:02:17.303Z,43.10
2019-04-21T16:04:44.655Z,43.20
2019-04-21T16:07:12.172Z,43.10
2019-04-21T16:09:40.005Z,43.10
2019-04-21T16:12:07.423Z,42.80
2019-04-21T16:14:34.569Z,42.90
2019-04-21T16:17:03.358Z,42.60
2019-04-21T16:19:33.304Z,42.50
2019-04-21T16:22:03.061Z,42.30
2019-04-21T16:24:31.346Z,42.30
2019-04-21T16:27:02.815Z,42.20
2019-04-21T16:29:29.072Z,42.20
2019-04-21T16:31:57.362Z,42.20
2019-04-21T16:34:36.297Z,42.30
2019-04-21T16:36:55.918Z,42.70
2019-04-21T16:39:25.220Z,42.60
2019-04-21T16:41:52.440Z,42.30
2019-04-21T16:44:20.985Z,42.30
2019-04-21T16:46:49.431Z,42.50
2019-04-21T16:49:17.913Z,42.60
2019-04-21T16:51:49.820Z,42.40
2019-04-21T16:54:29.083Z,42.50
2019-04-21T16:57:06.050Z,42.20
2019-04-21T16:59:38.974Z,42.10
2019-04-21T17:02:07.028Z,42.00
2019-04-21T17:04:34.292Z,42.00
2019-04-21T17:07:02.993Z,42.20
2019-04-21T17:09:30.828Z,42.00
2019-04-21T17:12:02.307Z,41.80
2019-04-21T17:14:47.822Z,41.80
2019-04-21T17:17:39.895Z,42.10
2019-04-21T17:19:33.102Z,41.90
2019-04-21T17:21:59.700Z,42.00
2019-04-21T17:24:28.463Z,41.90
2019-04-21T17:26:57.353Z,42.60
2019-04-21T17:29:25.255Z,42.00
2019-04-21T17:31:53.214Z,42.10
2019-04-21T17:34:24.986Z,42.10
2019-04-21T17:36:50.950Z,42.00
2019-04-21T17:39:18.766Z,42.10
2019-04-21T17:42:08.094Z,42.20
2019-04-21T17:44:17.150Z,42.20
2019-04-21T17:46:51.664Z,42.40
2019-04-21T17:49:14.965Z,42.60
2019-04-21T17:52:20.356Z,43.40
2019-04-21T17:55:07.586Z,42.90
2019-04-21T17:57:45.544Z,43.10
2019-04-21T18:00:25.842Z,43.30
2019-04-21T18:02:49.713Z,43.50
2019-04-21T18:05:19.439Z,43.70
2019-04-21T18:07:41.950Z,43.80
2019-04-21T18:10:11.445Z,44.40
2019-04-21T18:12:36.048Z,44.70
2019-04-21T18:15:08.332Z,44.90
2019-04-21T18:17:22.623Z,45.30
2019-04-21T18:19:51.740Z,45.60
2019-04-21T18:22:55.399Z,45.90
2019-04-21T18:25:36.166Z,46.40
2019-04-21T18:27:56.411Z,46.80
2019-04-21T18:30:46.825Z,46.80
2019-04-21T18:33:22.189Z,46.80
2019-04-21T18:36:05.081Z,46.90
2019-04-21T18:39:16.860Z,46.90
2019-04-21T18:41:30.141Z,46.80
2019-04-21T18:44:28.406Z,47.00
2019-04-21T18:46:58.688Z,47.40
2019-04-21T18:49:11.317Z,47.80
2019-04-21T18:51:59.609Z,47.60
2019-04-21T18:54:41.320Z,47.60
2019-04-21T18:57:07.219Z,47.40
2019-04-21T18:59:29.794Z,47.20
2019-04-21T19:02:02.115Z,47.20
2019-04-21T19:04:28.774Z,47.30
2019-04-21T19:07:06.710Z,47.20
2019-04-21T19:10:02.371Z,46.80
2019-04-21T19:12:18.006Z,47.00
2019-04-21T19:14:52.214Z,46.90
2019-04-21T19:17:39.590Z,46.80
2019-04-21T19:22:23.183Z,46.40
2019-04-21T19:24:46.577Z,46.00
2019-04-21T19:27:11.741Z,46.60
2019-04-21T19:29:36.028Z,46.70
2019-04-21T19:32:08.753Z,46.60
2019-04-21T19:34:25.759Z,46.50
2019-04-21T19:36:59.344Z,46.10
2019-04-21T19:39:37.720Z,45.70
2019-04-21T19:42:00.544Z,45.70
2019-04-21T19:44:38.231Z,45.80
2019-04-21T19:47:13.758Z,45.70
2019-04-21T19:49:41.945Z,45.80
2019-04-21T19:51:57.494Z,46.00
2019-04-21T19:54:25.156Z,45.80
2019-04-21T19:56:47.191Z,45.90
2019-04-21T19:59:22.182Z,45.70
2019-04-21T20:01:46.770Z,45.50
2019-04-21T20:04:16.790Z,45.30
2019-04-21T20:06:58.417Z,45.00
2019-04-21T20:09:36.359Z,45.30
2019-04-21T20:11:58.142Z,45.40
2019-04-21T20:16:57.700Z,44.90
2019-04-21T20:19:15.594Z,45.10
2019-04-21T20:21:43.082Z,45.00
2019-04-21T20:24:16.096Z,44.90
2019-04-21T20:26:45.063Z,44.60
2019-04-21T20:29:29.886Z,44.10
2019-04-21T20:31:54.990Z,44.60
2019-04-21T20:34:33.920Z,44.60
2019-04-21T20:37:03.208Z,44.40
2019-04-21T20:39:16.643Z,44.70
2019-04-21T20:41:49.980Z,44.70
2019-04-21T20:44:24.761Z,44.60
2019-04-21T20:46:55.078Z,44.60
2019-04-21T20:49:20.316Z,44.50
2019-04-21T20:51:53.661Z,44.70
2019-04-21T20:54:27.128Z,44.60
2019-04-21T20:56:55.138Z,44.80
2019-04-21T20:59:21.623Z,44.70
2019-04-21T21:01:52.213Z,45.10
2019-04-21T21:04:17.820Z,45.00
2019-04-21T21:06:49.608Z,45.00
2019-04-21T21:09:18.360Z,44.90
2019-04-21T21:12:12.868Z,44.90
2019-04-21T21:14:25.198Z,44.80
2019-04-21T21:16:56.697Z,45.10
2019-04-21T21:19:39.733Z,45.00
2019-04-21T21:21:53.347Z,45.00
2019-04-21T21:24:21.890Z,44.80
2019-04-21T21:26:49.896Z,44.70
2019-04-21T21:29:21.467Z,45.00
2019-04-21T21:31:48.882Z,45.00
2019-04-21T21:34:21.382Z,45.10
2019-04-21T21:36:50.535Z,45.00
2019-04-21T21:39:15.891Z,44.80
2019-04-21T21:41:36.831Z,44.90
2019-04-21T21:44:04.914Z,44.90
2019-04-21T21:46:40.377Z,45.10
2019-04-21T21:49:06.383Z,45.10
2019-04-21T21:51:42.245Z,45.60
2019-04-21T21:53:57.091Z,45.30
2019-04-21T21:56:26.849Z,45.30
2019-04-21T21:58:55.656Z,45.30
2019-04-21T22:01:31.883Z,45.60
2019-04-21T22:04:04.901Z,45.60
2019-04-21T22:06:30.783Z,45.90
2019-04-21T22:08:54.533Z,45.60
2019-04-21T22:11:22.152Z,46.00
2019-04-21T22:13:55.671Z,46.30
2019-04-21T22:16:21.813Z,46.20
2019-04-21T22:19:08.026Z,46.20
2019-04-21T22:21:44.294Z,46.20
2019-04-21T22:23:59.416Z,46.30
2019-04-21T22:26:19.037Z,46.80
2019-04-21T22:28:47.594Z,46.70
2019-04-21T22:31:21.157Z,46.60
2019-04-21T22:33:49.492Z,46.60
2019-04-21T22:36:26.646Z,46.60
2019-04-21T22:39:01.603Z,46.90
2019-04-21T22:41:25.772Z,47.00
2019-04-21T22:43:46.159Z,47.40
2019-04-21T22:46:13.615Z,47.50
2019-04-21T22:48:40.937Z,47.80
2019-04-21T22:51:20.324Z,47.90
2019-04-21T22:53:44.779Z,48.10
2019-04-21T22:56:14.916Z,47.90
2019-04-21T22:58:42.257Z,48.00
2019-04-21T23:01:09.511Z,48.10
2019-04-21T23:03:42.578Z,48.00
2019-04-21T23:06:15.561Z,48.20
2019-04-21T23:08:41.738Z,47.90
2019-04-21T23:11:11.795Z,48.30
2019-04-21T23:13:36.464Z,48.30
2019-04-21T23:16:06.196Z,48.30
2019-04-21T23:18:46.398Z,48.30
2019-04-21T23:21:18.607Z,48.30
2019-04-21T23:23:51.828Z,48.50
2019-04-21T23:26:21.667Z,48.70
2019-04-21T23:28:50.979Z,48.60
2019-04-21T23:31:25.830Z,48.60
2019-04-21T23:33:32.741Z,49.00
2019-04-21T23:36:09.680Z,48.90
2019-04-21T23:38:38.789Z,49.20
2019-04-21T23:41:02.036Z,49.20
2019-04-21T23:43:30.978Z,49.30
2019-04-21T23:45:57.266Z,49.20
2019-04-21T23:48:38.286Z,49.30
2019-04-21T23:51:10.934Z,49.70
2019-04-21T23:53:25.700Z,49.30
2019-04-21T23:55:54.914Z,49.10
2019-04-21T23:58:25.775Z,49.30
